createdAt,value
2022-09-28T00:01:41.353Z,99775.53
2022-09-28T00:04:07.851Z,99768.88
2022-09-28T00:06:34.212Z,99765.66
2022-09-28T00:09:01.774Z,99767.03
2022-09-28T00:11:29.013Z,99774.72
2022-09-28T00:14:02.314Z,99759.84
2022-09-28T00:16:32.746Z,99760.91
2022-09-28T00:18:59.875Z,99766.22
2022-09-28T00:21:29.168Z,99767.56
2022-09-28T00:24:17.055Z,99766.50
2022-09-28T00:26:55.013Z,99764.13
2022-09-28T00:29:30.057Z,99769.16
2022-09-28T00:32:00.533Z,99772.88
2022-09-28T00:34:27.464Z,99761.97
2022-09-28T00:36:53.917Z,99767.56
2022-09-28T00:39:20.284Z,99761.72
2022-09-28T00:41:47.092Z,99768.91
2022-09-28T00:44:31.441Z,99763.31
2022-09-28T00:47:13.915Z,99758.53
2022-09-28T00:49:52.381Z,99758.00
2022-09-28T00:52:28.784Z,99756.13
2022-09-28T00:54:58.034Z,99749.47
2022-09-28T00:57:25.441Z,99752.38
2022-09-28T00:59:52.166Z,99752.66
2022-09-28T01:02:19.817Z,99744.97
2022-09-28T01:04:47.090Z,99742.53
2022-09-28T01:07:14.295Z,99742.31
2022-09-28T01:09:40.732Z,99745.22
2022-09-28T01:12:07.925Z,99738.28
2022-09-28T01:14:34.590Z,99737.50
2022-09-28T01:17:11.951Z,99742.00
2022-09-28T01:19:47.408Z,99740.94
2022-09-28T01:22:22.941Z,99736.69
2022-09-28T01:24:59.980Z,99739.09
2022-09-28T01:27:36.077Z,99730.31
2022-09-28T01:30:02.510Z,99731.38
2022-09-28T01:33:04.876Z,99732.19
2022-09-28T01:35:37.350Z,99730.59
2022-09-28T01:38:15.224Z,99741.50
2022-09-28T01:40:42.269Z,99737.78
2022-09-28T01:43:15.458Z,99743.63
2022-09-28T01:45:49.004Z,99736.69
2022-09-28T01:48:23.022Z,99738.84
2022-09-28T01:50:53.502Z,99741.75
2022-09-28T01:53:25.796Z,99739.91
2022-09-28T01:55:57.879Z,99738.56
2022-09-28T01:58:30.078Z,99743.38
2022-09-28T02:01:03.317Z,99736.13
2022-09-28T02:03:38.784Z,99737.75
2022-09-28T02:06:11.140Z,99738.00
2022-09-28T02:08:44.248Z,99737.47
2022-09-28T02:11:16.390Z,99734.53
2022-09-28T02:13:45.625Z,99726.56
2022-09-28T02:16:41.406Z,99732.41
2022-09-28T02:19:17.773Z,99727.88
2022-09-28T02:22:11.481Z,99729.75
2022-09-28T02:24:40.861Z,99733.72
2022-09-28T02:27:15.579Z,99737.16
2022-09-28T02:29:41.982Z,99737.16
2022-09-28T02:32:08.387Z,99734.50
2022-09-28T02:34:35.594Z,99741.41
2022-09-28T02:37:02.794Z,99731.84
2022-09-28T02:39:29.544Z,99734.78
2022-09-28T02:42:20.663Z,99732.41
2022-09-28T02:45:02.966Z,99734.50
2022-09-28T02:48:10.888Z,99742.50
2022-09-28T02:51:11.245Z,99735.28
2022-09-28T02:53:57.576Z,99739.84
2022-09-28T02:56:55.979Z,99747.56
2022-09-28T03:00:18.058Z,99751.00
2022-09-28T03:03:31.878Z,99747.28
2022-09-28T03:06:00.225Z,99749.69
2022-09-28T03:08:46.624Z,99749.16
2022-09-28T03:11:19.141Z,99752.88
2022-09-28T03:13:45.905Z,99750.72
2022-09-28T03:16:13.915Z,99754.44
2022-09-28T03:18:41.203Z,99751.25
2022-09-28T03:21:07.914Z,99748.59
2022-09-28T03:23:34.262Z,99754.19
2022-09-28T03:26:00.627Z,99757.91
2022-09-28T03:28:27.895Z,99756.56
2022-09-28T03:30:54.327Z,99754.72
2022-09-28T03:33:20.939Z,99754.94
2022-09-28T03:35:49.641Z,99760.28
2022-09-28T03:38:18.122Z,99752.28
2022-09-28T03:40:52.110Z,99756.81
2022-09-28T03:43:18.495Z,99752.28
2022-09-28T03:45:51.854Z,99756.56
2022-09-28T03:48:24.485Z,99751.50
2022-09-28T03:50:58.031Z,99753.34
2022-09-28T03:53:25.564Z,99749.91
2022-09-28T03:55:53.300Z,99749.09
2022-09-28T03:58:23.110Z,99746.72
2022-09-28T04:00:49.893Z,99737.41
2022-09-28T04:03:16.309Z,99735.25
2022-09-28T04:05:53.353Z,99733.94
2022-09-28T04:08:20.140Z,99737.91
2022-09-28T04:10:47.113Z,99737.13
2022-09-28T04:13:13.808Z,99743.22
2022-09-28T04:15:40.144Z,99735.75
2022-09-28T04:18:13.468Z,99748.00
2022-09-28T04:20:45.327Z,99744.00
2022-09-28T04:23:12.297Z,99751.44
2022-09-28T04:25:39.561Z,99760.97
2022-09-28T04:28:24.436Z,99760.69
2022-09-28T04:30:50.744Z,99759.34
2022-09-28T04:33:17.044Z,99750.84
2022-09-28T04:35:43.404Z,99756.97
2022-09-28T04:38:09.708Z,99754.84
2022-09-28T04:40:36.133Z,99758.81
2022-09-28T04:43:02.508Z,99763.31
2022-09-28T04:45:28.900Z,99759.34
2022-09-28T04:47:55.317Z,99760.34
2022-09-28T04:50:21.827Z,99760.09
2022-09-28T04:52:48.228Z,99753.44
2022-09-28T04:55:14.943Z,99758.75
2022-09-28T04:57:41.284Z,99763.78
2022-09-28T05:00:08.947Z,99757.16
2022-09-28T05:02:35.464Z,99764.31
2022-09-28T05:05:02.018Z,99765.13
2022-09-28T05:07:29.232Z,99759.81
2022-09-28T05:09:55.837Z,99760.06
2022-09-28T05:12:22.191Z,99762.72
2022-09-28T05:14:48.530Z,99762.97
2022-09-28T05:17:14.888Z,99772.00
2022-09-28T05:19:41.201Z,99765.09
2022-09-28T05:22:11.530Z,99768.78
2022-09-28T05:24:37.956Z,99766.13
2022-09-28T05:27:05.015Z,99769.84
2022-09-28T05:29:32.349Z,99767.72
2022-09-28T05:32:01.379Z,99767.19
2022-09-28T05:34:27.990Z,99782.31
2022-09-28T05:36:54.309Z,99765.81
2022-09-28T05:39:20.768Z,99777.53
2022-09-28T05:41:47.137Z,99776.97
2022-09-28T05:44:13.473Z,99771.13
2022-09-28T05:46:39.914Z,99769.78
2022-09-28T05:49:06.211Z,99773.00
2022-09-28T05:51:32.542Z,99779.66
2022-09-28T05:54:04.680Z,99776.75
2022-09-28T05:56:32.309Z,99783.41
2022-09-28T05:58:58.873Z,99782.34
2022-09-28T06:01:25.318Z,99784.72
2022-09-28T06:03:51.703Z,99790.09
2022-09-28T06:06:18.018Z,99786.09
2022-09-28T06:08:46.139Z,99788.53
2022-09-28T06:11:12.735Z,99785.63
2022-09-28T06:13:42.463Z,99782.75
2022-09-28T06:16:10.428Z,99788.59
2022-09-28T06:18:36.863Z,99783.88
2022-09-28T06:21:03.884Z,99790.25
2022-09-28T06:23:30.242Z,99784.97
2022-09-28T06:25:58.952Z,99786.31
2022-09-28T06:28:26.798Z,99787.91
2022-09-28T06:30:53.952Z,99795.91
2022-09-28T06:33:20.626Z,99792.75
2022-09-28T06:35:47.084Z,99793.78
2022-09-28T06:38:13.692Z,99791.41
2022-09-28T06:40:40.064Z,99796.22
2022-09-28T06:43:10.699Z,99797.25
2022-09-28T06:45:38.384Z,99803.94
2022-09-28T06:48:06.278Z,99798.38
2022-09-28T06:50:39.464Z,99802.09
2022-09-28T06:53:09.240Z,99795.75
2022-09-28T06:55:39.043Z,99799.22
2022-09-28T06:58:09.361Z,99808.56
2022-09-28T07:00:37.500Z,99804.03
2022-09-28T07:03:06.964Z,99805.38
2022-09-28T07:05:36.675Z,99809.63
2022-09-28T07:08:04.344Z,99810.97
2022-09-28T07:10:31.795Z,99812.56
2022-09-28T07:13:02.490Z,99816.03
2022-09-28T07:15:29.768Z,99828.25
2022-09-28T07:18:03.277Z,99824.50
2022-09-28T07:20:31.364Z,99832.22
2022-09-28T07:23:12.775Z,99837.28
2022-09-28T07:25:47.681Z,99840.44
2022-09-28T07:28:14.337Z,99837.75
2022-09-28T07:30:40.909Z,99842.22
2022-09-28T07:33:09.363Z,99840.03
2022-09-28T07:35:35.781Z,99854.66
2022-09-28T07:38:04.276Z,99846.84
2022-09-28T07:40:50.505Z,99855.06
2022-09-28T07:43:20.738Z,99859.81
2022-09-28T07:45:49.249Z,99860.81
2022-09-28T07:48:16.829Z,99855.69
2022-09-28T07:50:57.185Z,99859.88
2022-09-28T07:53:25.463Z,99858.72
2022-09-28T07:55:56.831Z,99856.28
2022-09-28T07:58:23.304Z,99860.16
2022-09-28T08:00:50.589Z,99871.31
2022-09-28T08:03:18.526Z,99859.38
2022-09-28T08:05:46.788Z,99865.88
2022-09-28T08:08:13.969Z,99864.63
2022-09-28T08:10:46.523Z,99865.03
2022-09-28T08:13:14.943Z,99877.66
2022-09-28T08:15:42.149Z,99877.19
2022-09-28T08:18:08.479Z,99868.97
2022-09-28T08:20:53.140Z,99871.94
2022-09-28T08:23:20.273Z,99880.69
2022-09-28T08:25:52.448Z,99873.16
2022-09-28T08:28:18.816Z,99882.25
2022-09-28T08:30:46.518Z,99887.34
2022-09-28T08:33:13.659Z,99882.50
2022-09-28T08:35:43.079Z,99880.81
2022-09-28T08:38:10.821Z,99886.88
2022-09-28T08:41:15.884Z,99881.72
2022-09-28T08:43:45.258Z,99891.25
2022-09-28T08:46:13.351Z,99895.41
2022-09-28T08:49:13.377Z,99897.44
2022-09-28T08:52:00.285Z,99900.88
2022-09-28T08:54:51.620Z,99900.22
2022-09-28T08:57:26.472Z,99899.69
2022-09-28T08:59:55.957Z,99904.53
2022-09-28T09:02:27.265Z,99911.50
2022-09-28T09:04:54.557Z,99908.66
2022-09-28T09:07:49.336Z,99909.53
2022-09-28T09:10:37.241Z,99915.81
2022-09-28T09:13:31.404Z,99910.31
2022-09-28T09:16:04.747Z,99909.81
2022-09-28T09:18:49.163Z,99916.03
2022-09-28T09:21:32.177Z,99916.56
2022-09-28T09:24:18.448Z,99922.34
2022-09-28T09:26:45.660Z,99918.75
2022-09-28T09:29:45.529Z,99923.88
2022-09-28T09:32:33.678Z,99924.31
2022-09-28T09:35:22.375Z,99931.34
2022-09-28T09:38:06.964Z,99924.75
2022-09-28T09:40:42.905Z,99922.88
2022-09-28T09:43:28.043Z,99923.59
2022-09-28T09:46:18.224Z,99920.44
2022-09-28T09:48:50.717Z,99930.56
2022-09-28T09:51:24.883Z,99933.41
2022-09-28T09:54:05.680Z,99930.56
2022-09-28T09:56:43.893Z,99926.88
2022-09-28T09:59:18.925Z,99930.03
2022-09-28T10:01:45.972Z,99920.56
2022-09-28T10:04:21.451Z,99919.59
2022-09-28T10:06:51.340Z,99920.28
2022-09-28T10:09:24.969Z,99922.31
2022-09-28T10:11:51.981Z,99924.16
2022-09-28T10:14:21.423Z,99929.69
2022-09-28T10:16:50.510Z,99916.72
2022-09-28T10:19:19.356Z,99921.06
2022-09-28T10:21:50.164Z,99926.88
2022-09-28T10:24:56.711Z,99918.94
2022-09-28T10:27:33.896Z,99929.47
2022-09-28T10:30:09.289Z,99927.41
2022-09-28T10:32:44.471Z,99926.72
2022-09-28T10:35:20.133Z,99932.81
2022-09-28T10:38:07.838Z,99933.22
2022-09-28T10:40:50.478Z,99926.84
2022-09-28T10:43:26.909Z,99928.22
2022-09-28T10:46:05.623Z,99928.31
2022-09-28T10:48:49.935Z,99929.66
2022-09-28T10:51:16.985Z,99927.41
2022-09-28T10:53:58.821Z,99936.16
2022-09-28T10:56:28.855Z,99927.25
2022-09-28T10:58:55.708Z,99922.34
2022-09-28T11:01:31.126Z,99924.28
2022-09-28T11:04:01.062Z,99921.19
2022-09-28T11:06:31.053Z,99931.72
2022-09-28T11:09:01.229Z,99922.75
2022-09-28T11:11:29.522Z,99932.13
2022-09-28T11:14:00.948Z,99925.75
2022-09-28T11:16:31.717Z,99926.88
2022-09-28T11:19:19.432Z,99924.13
2022-09-28T11:21:46.174Z,99921.63
2022-09-28T11:24:19.030Z,99919.03
2022-09-28T11:26:49.529Z,99922.47
2022-09-28T11:29:36.249Z,99916.91
2022-09-28T11:32:05.419Z,99915.53
2022-09-28T11:34:58.636Z,99906.66
2022-09-28T11:38:01.550Z,99910.44
2022-09-28T11:40:32.404Z,99914.63
2022-09-28T11:43:13.239Z,99911.38
2022-09-28T11:45:54.572Z,99912.22
2022-09-28T11:48:28.567Z,99913.41
2022-09-28T11:51:02.072Z,99915.09
2022-09-28T11:53:43.760Z,99919.94
2022-09-28T11:56:28.627Z,99925.97
2022-09-28T11:59:06.373Z,99928.88
2022-09-28T12:01:50.183Z,99927.19
2022-09-28T12:04:24.988Z,99926.88
2022-09-28T12:07:03.811Z,99926.72
2022-09-28T12:09:40.390Z,99921.28
2022-09-28T12:12:19.995Z,99918.97
2022-09-28T12:14:47.309Z,99923.16
2022-09-28T12:17:34.408Z,99928.31
2022-09-28T12:20:30.372Z,99932.97
2022-09-28T12:22:59.441Z,99925.72
2022-09-28T12:25:28.774Z,99931.03
2022-09-28T12:28:00.364Z,99940.41
2022-09-28T12:30:32.758Z,99938.94
2022-09-28T12:33:04.225Z,99951.03
2022-09-28T12:36:04.709Z,99944.44
2022-09-28T12:38:34.076Z,99946.34
2022-09-28T12:41:22.519Z,99960.53
2022-09-28T12:44:13.213Z,99967.09
2022-09-28T12:47:16.407Z,99974.72
2022-09-28T12:50:38.198Z,99960.97
2022-09-28T12:53:16.009Z,99965.44
2022-09-28T12:56:00.952Z,99946.47
2022-09-28T12:58:48.373Z,99949.59
2022-09-28T13:01:30.122Z,99955.38
2022-09-28T13:04:15.977Z,99948.59
2022-09-28T13:06:54.338Z,99943.66
2022-09-28T13:09:26.113Z,99942.38
2022-09-28T13:11:55.633Z,99952.94
2022-09-28T13:14:27.995Z,99940.59
2022-09-28T13:17:29.654Z,99945.31
2022-09-28T13:20:20.706Z,99944.50
2022-09-28T13:22:56.784Z,99948.31
2022-09-28T13:25:27.100Z,99946.72
2022-09-28T13:27:59.105Z,99960.00
2022-09-28T13:30:25.672Z,99956.81
2022-09-28T13:32:56.194Z,99961.84
2022-09-28T13:35:23.384Z,99967.22
2022-09-28T13:38:16.153Z,99966.59
2022-09-28T13:41:04.376Z,99966.75
2022-09-28T13:44:01.848Z,99964.28
2022-09-28T13:46:47.435Z,99966.31
2022-09-28T13:49:19.430Z,99961.94
2022-09-28T13:52:02.305Z,99956.56
2022-09-28T13:55:03.528Z,99947.97
2022-09-28T13:57:33.953Z,99948.84
2022-09-28T14:00:02.868Z,99943.22
2022-09-28T14:02:39.218Z,99950.06
2022-09-28T14:05:31.674Z,99945.56
2022-09-28T14:08:26.180Z,99952.81
2022-09-28T14:10:57.385Z,99957.09
2022-09-28T14:13:41.941Z,99954.03
2022-09-28T14:16:32.356Z,99953.41
2022-09-28T14:19:01.724Z,99961.78
2022-09-28T14:21:46.436Z,99969.28
2022-09-28T14:24:46.675Z,99964.19
2022-09-28T14:27:29.659Z,99969.41
2022-09-28T14:30:11.322Z,99963.06
2022-09-28T14:32:40.566Z,99961.03
2022-09-28T14:35:31.663Z,99974.63
2022-09-28T14:38:22.195Z,99977.94
2022-09-28T14:41:10.600Z,99980.75
2022-09-28T14:43:46.019Z,99982.47
2022-09-28T14:46:12.386Z,99992.75
2022-09-28T14:48:50.968Z,99985.03
2022-09-28T14:51:26.567Z,99979.53
2022-09-28T14:53:54.969Z,99983.56
2022-09-28T14:56:22.157Z,99980.03
2022-09-28T14:58:54.857Z,99983.00
2022-09-28T15:01:24.635Z,99984.63
2022-09-28T15:04:04.497Z,99986.72
2022-09-28T15:07:00.174Z,99990.44
2022-09-28T15:09:37.544Z,99992.84
2022-09-28T15:12:29.931Z,99993.09
2022-09-28T15:15:02.062Z,99997.16
2022-09-28T15:17:37.028Z,100001.56
2022-09-28T15:20:06.144Z,99997.28
2022-09-28T15:22:33.553Z,100003.25
2022-09-28T15:25:02.972Z,100001.84
2022-09-28T15:27:37.984Z,100009.22
2022-09-28T15:30:26.304Z,99997.50
2022-09-28T15:32:56.557Z,99997.59
2022-09-28T15:35:27.495Z,99997.00
2022-09-28T15:37:55.244Z,99999.69
2022-09-28T15:40:34.309Z,100003.34
2022-09-28T15:43:02.386Z,100013.91
2022-09-28T15:45:39.855Z,100010.13
2022-09-28T15:48:28.972Z,100009.44
2022-09-28T15:51:00.037Z,100015.78
2022-09-28T15:53:26.821Z,100001.44
2022-09-28T15:56:01.141Z,100010.91
2022-09-28T15:58:28.918Z,100002.75
2022-09-28T16:01:36.239Z,100015.75
2022-09-28T16:04:33.780Z,100010.28
2022-09-28T16:07:09.136Z,100012.59
2022-09-28T16:09:53.771Z,100004.13
2022-09-28T16:12:21.635Z,100008.00
2022-09-28T16:14:51.196Z,100007.13
2022-09-28T16:17:33.291Z,99996.84
2022-09-28T16:20:03.429Z,100005.91
2022-09-28T16:22:32.698Z,100001.34
2022-09-28T16:25:00.929Z,100004.53
2022-09-28T16:27:41.353Z,100008.03
2022-09-28T16:30:27.093Z,100000.75
2022-09-28T16:32:56.263Z,100011.72
2022-09-28T16:35:40.584Z,100012.19
2022-09-28T16:38:14.883Z,100014.41
2022-09-28T16:40:44.132Z,100013.47
2022-09-28T16:43:26.789Z,100014.19
2022-09-28T16:45:58.281Z,100021.94
2022-09-28T16:48:30.095Z,100020.06
2022-09-28T16:50:58.039Z,100030.69
2022-09-28T16:53:43.627Z,100027.09
2022-09-28T16:56:11.206Z,100021.50
2022-09-28T16:58:38.883Z,100025.47
2022-09-28T17:01:09.510Z,100029.56
2022-09-28T17:03:36.070Z,100031.53
2022-09-28T17:06:04.320Z,100039.16
2022-09-28T17:08:30.624Z,100041.63
2022-09-28T17:11:20.187Z,100043.91
2022-09-28T17:13:47.080Z,100042.09
2022-09-28T17:16:21.030Z,100047.53
2022-09-28T17:18:51.634Z,100052.00
2022-09-28T17:21:20.516Z,100052.06
2022-09-28T17:23:49.107Z,100053.50
2022-09-28T17:26:30.906Z,100058.44
2022-09-28T17:28:59.291Z,100058.81
2022-09-28T17:31:25.900Z,100058.88
2022-09-28T17:33:52.331Z,100064.59
2022-09-28T17:36:18.995Z,100060.09
2022-09-28T17:38:46.697Z,100069.81
2022-09-28T17:41:20.452Z,100077.94
2022-09-28T17:43:47.610Z,100070.25
2022-09-28T17:46:34.791Z,100073.28
2022-09-28T17:49:03.793Z,100065.28
2022-09-28T17:51:32.438Z,100072.56
2022-09-28T17:54:00.895Z,100064.88
2022-09-28T17:56:31.942Z,100065.44
2022-09-28T17:59:01.026Z,100070.34
2022-09-28T18:01:33.663Z,100072.81
2022-09-28T18:04:02.651Z,100071.28
2022-09-28T18:06:37.296Z,100077.56
2022-09-28T18:09:04.611Z,100073.63
2022-09-28T18:11:32.605Z,100074.97
2022-09-28T18:13:59.050Z,100080.16
2022-09-28T18:16:27.776Z,100076.47
2022-09-28T18:18:54.357Z,100076.53
2022-09-28T18:21:20.737Z,100074.72
2022-09-28T18:23:47.080Z,100081.19
2022-09-28T18:26:15.159Z,100071.56
2022-09-28T18:28:42.147Z,100077.50
2022-09-28T18:31:10.420Z,100079.69
2022-09-28T18:33:52.807Z,100080.28
2022-09-28T18:36:19.134Z,100085.09
2022-09-28T18:38:45.492Z,100087.25
2022-09-28T18:41:15.431Z,100088.31
2022-09-28T18:43:49.297Z,100086.72
2022-09-28T18:46:17.504Z,100082.72
2022-09-28T18:48:43.944Z,100083.28
2022-09-28T18:51:12.170Z,100087.31
2022-09-28T18:53:39.917Z,100085.72
2022-09-28T18:56:12.167Z,100085.19
2022-09-28T18:58:40.134Z,100078.78
2022-09-28T19:01:29.314Z,100080.16
2022-09-28T19:03:59.969Z,100081.75
2022-09-28T19:06:26.335Z,100086.59
2022-09-28T19:08:55.536Z,100081.00
2022-09-28T19:11:22.663Z,100082.06
2022-09-28T19:13:49.103Z,100076.97
2022-09-28T19:16:18.060Z,100083.94
2022-09-28T19:18:44.910Z,100086.88
2022-09-28T19:21:13.995Z,100083.69
2022-09-28T19:23:44.787Z,100081.31
2022-09-28T19:26:16.814Z,100088.50
2022-09-28T19:28:43.461Z,100087.97
2022-09-28T19:31:11.546Z,100077.56
2022-09-28T19:33:39.136Z,100087.75
2022-09-28T19:36:08.302Z,100086.13
2022-09-28T19:38:36.812Z,100093.63
2022-09-28T19:41:11.895Z,100096.88
2022-09-28T19:43:38.982Z,100099.81
2022-09-28T19:46:06.736Z,100102.53
2022-09-28T19:48:34.454Z,100098.25
2022-09-28T19:51:06.098Z,100101.75
2022-09-28T19:53:36.520Z,100103.06
2022-09-28T19:56:05.495Z,100107.88
2022-09-28T19:58:35.549Z,100098.84
2022-09-28T20:01:08.175Z,100098.84
2022-09-28T20:03:34.736Z,100105.78
2022-09-28T20:06:01.753Z,100103.13
2022-09-28T20:08:32.043Z,100118.91
2022-09-28T20:10:59.823Z,100122.38
2022-09-28T20:13:31.692Z,100118.63
2022-09-28T20:16:12.428Z,100118.63
2022-09-28T20:18:43.464Z,100125.88
2022-09-28T20:21:18.137Z,100116.53
2022-09-28T20:23:45.135Z,100121.63
2022-09-28T20:26:12.254Z,100119.78
2022-09-28T20:28:39.005Z,100123.00
2022-09-28T20:31:20.520Z,100129.94
2022-09-28T20:33:47.348Z,100123.00
2022-09-28T20:36:17.395Z,100122.19
2022-09-28T20:38:46.595Z,100128.88
2022-09-28T20:41:15.075Z,100135.28
2022-09-28T20:43:41.587Z,100128.88
2022-09-28T20:46:10.273Z,100130.22
2022-09-28T20:48:37.003Z,100136.38
2022-09-28T20:51:22.147Z,100131.56
2022-09-28T20:53:50.669Z,100132.91
2022-09-28T20:56:20.175Z,100128.88
2022-09-28T20:58:47.149Z,100131.03
2022-09-28T21:01:19.586Z,100136.09
2022-09-28T21:03:48.644Z,100132.63
2022-09-28T21:06:17.223Z,100136.91
2022-09-28T21:08:44.671Z,100138.22
2022-09-28T21:11:12.842Z,100138.50
2022-09-28T21:13:42.817Z,100141.16
2022-09-28T21:16:17.934Z,100147.03
2022-09-28T21:18:44.964Z,100148.63
2022-09-28T21:21:15.946Z,100149.97
2022-09-28T21:23:45.512Z,100151.28
2022-09-28T21:26:26.556Z,100158.22
2022-09-28T21:28:54.350Z,100152.91
2022-09-28T21:31:26.182Z,100153.97
2022-09-28T21:33:55.523Z,100155.53
2022-09-28T21:36:21.833Z,100152.63
2022-09-28T21:38:48.140Z,100158.72
2022-09-28T21:41:14.725Z,100156.06
2022-09-28T21:43:41.058Z,100156.84
2022-09-28T21:46:07.494Z,100162.72
2022-09-28T21:48:33.820Z,100161.91
2022-09-28T21:51:02.985Z,100166.44
2022-09-28T21:53:31.695Z,100161.38
2022-09-28T21:55:59.993Z,100161.63
2022-09-28T21:58:29.863Z,100158.97
2022-09-28T22:01:14.628Z,100169.38
2022-09-28T22:03:43.832Z,100169.38
2022-09-28T22:06:10.624Z,100166.94
2022-09-28T22:08:37.687Z,100169.59
2022-09-28T22:11:06.051Z,100164.81
2022-09-28T22:13:34.571Z,100167.72
2022-09-28T22:16:01.676Z,100174.66
2022-09-28T22:18:29.905Z,100176.78
2022-09-28T22:21:12.261Z,100172.75
2022-09-28T22:23:39.336Z,100180.22
2022-09-28T22:26:11.059Z,100173.50
2022-09-28T22:28:38.839Z,100178.03
2022-09-28T22:31:06.004Z,100176.13
2022-09-28T22:33:32.419Z,100183.06
2022-09-28T22:35:58.723Z,100184.91
2022-09-28T22:38:25.097Z,100181.44
2022-09-28T22:40:54.513Z,100188.06
2022-09-28T22:43:23.322Z,100182.19
2022-09-28T22:45:49.924Z,100189.66
2022-09-28T22:48:16.300Z,100189.88
2022-09-28T22:50:50.381Z,100191.22
2022-09-28T22:53:17.261Z,100195.19
2022-09-28T22:55:43.653Z,100193.03
2022-09-28T22:58:10.600Z,100192.50
2022-09-28T23:00:37.105Z,100187.16
2022-09-28T23:03:04.451Z,100186.38
2022-09-28T23:05:31.239Z,100182.13
2022-09-28T23:07:57.577Z,100191.41
2022-09-28T23:10:24.255Z,100187.34
2022-09-28T23:12:53.272Z,100191.81
2022-09-28T23:15:20.074Z,100190.19
2022-09-28T23:17:50.904Z,100194.16
2022-09-28T23:20:17.232Z,100190.91
2022-09-28T23:22:47.928Z,100194.28
2022-09-28T23:25:15.646Z,100192.41
2022-09-28T23:27:49.485Z,100191.59
2022-09-28T23:30:19.040Z,100196.94
2022-09-28T23:32:45.714Z,100198.53
2022-09-28T23:35:14.021Z,100197.16
2022-09-28T23:37:40.360Z,100196.59
2022-09-28T23:40:07.338Z,100213.03
2022-09-28T23:42:34.822Z,100201.84
2022-09-28T23:45:01.268Z,100207.44
2022-09-28T23:47:27.580Z,100206.63
2022-09-28T23:49:53.902Z,100200.78
2022-09-28T23:52:20.238Z,100201.56
2022-09-28T23:54:46.566Z,100198.34
2022-09-28T23:57:12.884Z,100205.22
2022-09-28T23:59:39.272Z,100194.56
